TAF LFML
LFML 262000Z 2621/2803 33020KT CAVOK TX13/2713Z TN05/2705Z BECMG 2621/2623 34010KT BECMG 2701/2703 VRB03KT BKN030 TEMPO 2704/2710 4000 RA BKN010 BECMG 2710/2712 32012KT CAVOK TEMPO 2712/2716 SCT030TCU=
METAR LFML
LFML 270730Z AUTO 13005KT 9999 BKN037/// BKN043/// OVC049/// ///CB 07/06 Q0996 TEMPO 4000 RA BECMG BKN030=
LFML 270700Z AUTO VRB03KT 9999 -RA FEW021/// BKN026/// BKN033/// ///CB 06/05 Q0996 TEMPO 4000 RA BKN010=
LFML 270630Z AUTO 15004KT 130V190 9999 FEW028/// BKN046/// BKN080/// ///CB 06/05 Q0996 TEMPO 4000 RA BKN010=
LFML 270600Z AUTO VRB03KT 9999 FEW040/// SCT047/// BKN068/// ///TCU 06/04 Q0996 TEMPO 4000 RA BKN010=
LFML 270530Z AUTO VRB03KT 9999 SCT033/// SCT052/// BKN082/// ///CB 06/03 Q0996 TEMPO 4000 RA BKN010=
WC LFML
WS LFML
WV LFML